M I D A S
Marine Information and Data Acquisition System
Tripno 2298 of the Zeeleeuw from 2012-04-27 08:13:43 to 2012-04-27 12:59:57
Back to CruiseResearch ActivitiesStationsMapUnderway DataData graphs

EquipmentUnitsComment
TimeDGPSUTC
LatitudeDGPSDM.mWGS84
LongitudeDGPSDM.mWGS84
HeadingGyrodeg 
SOGDGPSknotsSpeed over ground
COGDGPSdegCourse over ground
DepthEcho soundermeters200 kHz
Missing or incorrect values are displayed as -999
Navigation data collected by the RV Zeeleeuw from 2012-04-27 08:11:11 to 2012-04-27 15:30:21
                                                                                    Next 1000 lines
Time Latitude Longitude Heading SOG COG Depth
2012-04-27 08:11:21 51°13.636 2°56.014 107.4 1.3 298 -999
2012-04-27 08:11:26 51°13.637 2°56.01 107.4 1.9 292 -999
2012-04-27 08:11:31 51°13.639 2°56.005 107.3 2.6 294 -999
2012-04-27 08:11:37 51°13.64 2°55.998 107.2 3.1 292 -999
2012-04-27 08:11:41 51°13.642 2°55.992 107.5 3.4 293 -999
2012-04-27 08:11:46 51°13.644 2°55.985 107.9 3.7 290 -999
2012-04-27 08:11:51 51°13.646 2°55.976 108.4 4.1 293 -999
2012-04-27 08:11:57 51°13.648 2°55.966 109 4.3 291 -999
2012-04-27 08:12:01 51°13.65 2°55.958 109.1 4.5 292 -999
2012-04-27 08:12:06 51°13.653 2°55.949 108.8 4.7 290 -999
2012-04-27 08:12:11 51°13.655 2°55.938 108.3 4.9 290 -999
2012-04-27 08:12:16 51°13.658 2°55.928 107.9 4.9 289 -999
2012-04-27 08:12:21 51°13.66 2°55.918 107.9 4.9 289 -999
2012-04-27 08:12:26 51°13.662 2°55.908 107.9 4.9 289 -999
2012-04-27 08:12:31 51°13.664 2°55.898 108.1 4.8 289 -999
2012-04-27 08:12:36 51°13.667 2°55.888 108.3 4.8 289 -999
2012-04-27 08:12:41 51°13.669 2°55.878 108.8 4.7 289 -999
2012-04-27 08:12:46 51°13.671 2°55.868 109.3 4.7 289 -999
2012-04-27 08:12:51 51°13.673 2°55.859 109.5 4.6 290 -999
2012-04-27 08:12:56 51°13.675 2°55.849 109.3 4.4 289 -999
2012-04-27 08:13:01 51°13.677 2°55.84 109 4.3 289 -999
2012-04-27 08:13:06 51°13.679 2°55.832 108.2 4.2 289 -999
2012-04-27 08:13:11 51°13.681 2°55.823 107.4 4.2 289 -999
2012-04-27 08:13:16 51°13.682 2°55.814 106.5 4.1 288 -999
2012-04-27 08:13:21 51°13.684 2°55.806 105.4 4 288 -999
2012-04-27 08:13:26 51°13.686 2°55.797 104.1 3.9 288 -999
2012-04-27 08:13:31 51°13.687 2°55.79 102.7 3.8 287 -999
2012-04-27 08:13:36 51°13.688 2°55.782 101.2 3.6 286 -999
2012-04-27 08:13:41 51°13.689 2°55.774 99.4 3.5 285 -999
2012-04-27 08:13:46 51°13.69 2°55.767 97.4 3.3 284 -999
2012-04-27 08:13:51 51°13.691 2°55.761 95.3 2.8 284 -999
2012-04-27 08:13:56 51°13.692 2°55.756 93.4 1.9 288 -999
2012-04-27 08:14:01 51°13.693 2°55.754 90.1 1 296 -999
2012-04-27 08:14:06 51°13.694 2°55.754 84 0.6 344 -999
2012-04-27 08:14:11 51°13.695 2°55.754 76.3 0.7 16 -999
2012-04-27 08:14:16 51°13.696 2°55.755 69.2 0.9 24 -999
2012-04-27 08:14:21 51°13.697 2°55.756 62.7 1.1 31 -999
2012-04-27 08:14:26 51°13.699 2°55.758 56 1.4 27 -999
2012-04-27 08:14:31 51°13.7 2°55.759 49.2 1.5 27 -999
2012-04-27 08:14:36 51°13.703 2°55.76 42.7 1.5 19 -999
2012-04-27 08:14:41 51°13.704 2°55.761 36.9 1.4 15 -999
2012-04-27 08:14:46 51°13.706 2°55.761 32.5 0.8 -999 -999
2012-04-27 08:14:51 51°13.706 2°55.761 28.3 0.4 299 -999
2012-04-27 08:14:56 51°13.706 2°55.76 23.7 0.7 228 -999
2012-04-27 08:15:01 51°13.705 2°55.758 19.4 1.1 215 -999
2012-04-27 08:15:06 51°13.703 2°55.757 15.7 1.6 202 -999
2012-04-27 08:15:11 51°13.7 2°55.756 12.5 1.9 198 -999
2012-04-27 08:15:16 51°13.698 2°55.755 9.7 2 195 -999
2012-04-27 08:15:21 51°13.695 2°55.753 7.6 1.8 195 -999
2012-04-27 08:15:26 51°13.693 2°55.752 5.2 1.3 200 -999
2012-04-27 08:15:31 51°13.693 2°55.752 2.3 0.2 267 -999
2012-04-27 08:15:36 51°13.694 2°55.751 357.2 0.8 329 -999
2012-04-27 08:15:41 51°13.696 2°55.75 350.7 1.4 343 -999
2012-04-27 08:15:46 51°13.698 2°55.748 345.2 2 334 -999
2012-04-27 08:15:51 51°13.701 2°55.746 338.4 2.6 337 -999
2012-04-27 08:15:56 51°13.705 2°55.743 335.3 3.2 331 -999
2012-04-27 08:16:01 51°13.71 2°55.739 333.1 3.7 331 -999
2012-04-27 08:16:06 51°13.715 2°55.735 332.5 4.2 331 -999
2012-04-27 08:16:11 51°13.721 2°55.73 332.5 4.8 333 -999
2012-04-27 08:16:17 51°13.728 2°55.723 333.2 5.2 331 -999
2012-04-27 08:16:21 51°13.734 2°55.718 333.1 5.6 331 -999
2012-04-27 08:16:26 51°13.741 2°55.712 333 5.9 331 -999
2012-04-27 08:16:31 51°13.749 2°55.705 333 6.3 331 -999
2012-04-27 08:16:36 51°13.757 2°55.698 333.1 6.6 331 -999
2012-04-27 08:16:41 51°13.765 2°55.691 333.6 6.8 331 -999
2012-04-27 08:16:46 51°13.773 2°55.684 334.3 7 332 -999
2012-04-27 08:16:51 51°13.782 2°55.676 334.8 7.2 333 -999
2012-04-27 08:16:56 51°13.792 2°55.669 335.4 7.4 334 -999
2012-04-27 08:17:01 51°13.801 2°55.662 335.9 7.5 333 -999
2012-04-27 08:17:06 51°13.811 2°55.655 336.7 7.6 335 10.4
2012-04-27 08:17:11 51°13.82 2°55.647 337.2 7.8 335 -999
2012-04-27 08:17:16 51°13.83 2°55.64 337.3 7.7 336 -999
2012-04-27 08:17:21 51°13.84 2°55.634 337.7 7.6 337 -999
2012-04-27 08:17:26 51°13.849 2°55.627 337.9 7.5 336 -999
2012-04-27 08:17:31 51°13.859 2°55.62 338.2 7.4 338 -999
2012-04-27 08:17:36 51°13.868 2°55.614 338.6 7.3 338 -999
2012-04-27 08:17:41 51°13.877 2°55.608 339 7.2 338 -999
2012-04-27 08:17:46 51°13.887 2°55.602 339.3 7.2 337 -999
2012-04-27 08:17:51 51°13.896 2°55.596 338.6 7.2 337 10.1
2012-04-27 08:17:56 51°13.905 2°55.59 338.2 7.3 336 10.2
2012-04-27 08:18:01 51°13.914 2°55.583 337.9 7.3 337 10
2012-04-27 08:18:06 51°13.924 2°55.577 338.1 7.3 337 10
2012-04-27 08:18:11 51°13.933 2°55.571 338.5 7.4 337 10
2012-04-27 08:18:16 51°13.943 2°55.564 338.4 7.5 337 -999
2012-04-27 08:18:21 51°13.952 2°55.558 338.2 7.5 337 -999
2012-04-27 08:18:26 51°13.962 2°55.552 338.3 7.6 338 9.9
2012-04-27 08:18:31 51°13.972 2°55.545 338.6 7.6 338 -999
2012-04-27 08:18:37 51°13.984 2°55.538 338.6 7.7 338 9.9
2012-04-27 08:18:41 51°13.992 2°55.532 338.3 7.7 337 9.9
2012-04-27 08:18:46 51°14.002 2°55.526 338.1 7.8 338 -999
2012-04-27 08:18:51 51°14.012 2°55.519 338.3 7.8 337 -999
2012-04-27 08:18:56 51°14.022 2°55.513 338.2 7.8 337 -999
2012-04-27 08:19:01 51°14.031 2°55.506 337.6 7.7 336 -999
2012-04-27 08:19:06 51°14.041 2°55.499 337.2 7.7 336 -999
2012-04-27 08:19:11 51°14.051 2°55.492 336.9 7.6 336 9.8
2012-04-27 08:19:16 51°14.061 2°55.486 336.9 7.6 336 9.9
2012-04-27 08:19:21 51°14.07 2°55.479 337 7.6 335 9.9
2012-04-27 08:19:26 51°14.08 2°55.472 336.7 7.6 336 9.9
2012-04-27 08:19:31 51°14.089 2°55.464 336.4 7.7 335 9.9
2012-04-27 08:19:36 51°14.099 2°55.457 336.2 7.8 336 9.9
2012-04-27 08:19:41 51°14.109 2°55.45 336.6 7.8 334 -999
2012-04-27 08:19:46 51°14.119 2°55.442 336.1 8 334 -999
2012-04-27 08:19:51 51°14.129 2°55.434 335.2 8.2 333 -999
2012-04-27 08:19:56 51°14.14 2°55.426 335.3 8.4 335 -999
2012-04-27 08:20:01 51°14.15 2°55.418 335.6 8.6 333 -999
2012-04-27 08:20:06 51°14.161 2°55.409 334.7 8.8 333 -999
2012-04-27 08:20:11 51°14.172 2°55.4 334.6 9.1 333 -999
2012-04-27 08:20:16 51°14.184 2°55.391 334.7 9.4 333 -999
2012-04-27 08:20:21 51°14.196 2°55.38 334 9.6 331 -999
2012-04-27 08:20:26 51°14.208 2°55.371 333.9 9.8 333 -999
2012-04-27 08:20:31 51°14.22 2°55.359 333 10.2 328 -999
2012-04-27 08:20:36 51°14.232 2°55.348 332.3 10.5 331 -999
2012-04-27 08:20:41 51°14.245 2°55.335 331.2 10.7 327 -999
2012-04-27 08:20:46 51°14.258 2°55.323 329.5 10.9 329 -999
2012-04-27 08:20:51 51°14.271 2°55.31 329.8 11.1 328 -999
2012-04-27 08:20:57 51°14.287 2°55.295 330.2 11.3 329 -999
2012-04-27 08:21:01 51°14.298 2°55.284 330.1 11.6 328 -999
2012-04-27 08:21:06 51°14.312 2°55.271 330.8 11.7 330 -999
2012-04-27 08:21:11 51°14.326 2°55.257 331.1 11.9 328 -999
2012-04-27 08:21:16 51°14.341 2°55.244 331.1 12 330 -999
2012-04-27 08:21:21 51°14.355 2°55.229 330.3 12.1 327 -999
2012-04-27 08:21:26 51°14.369 2°55.216 330.3 12.2 330 -999
2012-04-27 08:21:31 51°14.384 2°55.201 330.3 12.3 328 -999
2012-04-27 08:21:36 51°14.399 2°55.188 330.4 12.3 330 -999
2012-04-27 08:21:41 51°14.413 2°55.174 330.9 12.3 329 -999
2012-04-27 08:21:46 51°14.428 2°55.16 330.3 12.3 328 9.9
2012-04-27 08:21:51 51°14.442 2°55.146 330.4 12.3 330 -999
2012-04-27 08:21:56 51°14.457 2°55.132 330.9 12.2 329 9.9
2012-04-27 08:22:01 51°14.471 2°55.118 330.5 12.2 329 10
2012-04-27 08:22:05 51°14.483 2°55.107 330.5 12.3 329 10
2012-04-27 08:22:11 51°14.501 2°55.09 330.7 12.4 329 9.9
2012-04-27 08:22:16 51°14.516 2°55.077 330.6 12.3 331 10.1
2012-04-27 08:22:21 51°14.53 2°55.063 331.8 12.3 329 10.1
2012-04-27 08:22:25 51°14.542 2°55.051 331.3 12.3 327 10.5
2012-04-27 08:22:30 51°14.556 2°55.035 329.4 12.3 323 11.1
2012-04-27 08:22:35 51°14.569 2°55.018 327.4 12.4 322 11.4
2012-04-27 08:22:40 51°14.582 2°54.999 324.9 12.5 318 11.5
2012-04-27 08:22:45 51°14.595 2°54.981 322.9 12.5 318 11.6
2012-04-27 08:22:49 51°14.605 2°54.965 321.4 12.5 315 11.6
2012-04-27 08:22:54 51°14.616 2°54.944 318.8 12.5 311 11.5
2012-04-27 08:22:59 51°14.626 2°54.922 314.8 12.5 305 11.5
2012-04-27 08:23:04 51°14.636 2°54.899 310.7 12.5 304 11.2
2012-04-27 08:23:09 51°14.644 2°54.875 307.8 12.5 300 11.2
2012-04-27 08:23:13 51°14.651 2°54.855 304.8 12.5 298 11.1
2012-04-27 08:23:19 51°14.659 2°54.825 301.2 12.4 293 11.1
2012-04-27 08:23:23 51°14.664 2°54.804 297.1 12.4 290 11.1
2012-04-27 08:23:28 51°14.669 2°54.778 293.5 12.4 286 10.9
2012-04-27 08:23:33 51°14.673 2°54.751 289.2 12.3 282 11
2012-04-27 08:23:37 51°14.674 2°54.73 284 12.2 276 10.8
2012-04-27 08:23:43 51°14.675 2°54.698 278.4 12.2 271 10.7
2012-04-27 08:23:48 51°14.673 2°54.671 272.6 12.1 266 10.8
2012-04-27 08:23:53 51°14.671 2°54.644 266.9 12.1 261 10.5
2012-04-27 08:23:57 51°14.667 2°54.623 261.5 12.1 256 10.2
2012-04-27 08:24:03 51°14.662 2°54.593 257 12.1 252 10
2012-04-27 08:24:08 51°14.655 2°54.568 252.8 12.1 249 10.1
2012-04-27 08:24:13 51°14.648 2°54.543 248.8 12.2 245 10.2
2012-04-27 08:24:17 51°14.642 2°54.524 245.6 12.2 242 10.3
2012-04-27 08:24:22 51°14.634 2°54.501 243 12.2 238 10.2
2012-04-27 08:24:28 51°14.622 2°54.475 237.8 12.2 234 10.3
2012-04-27 08:24:33 51°14.611 2°54.453 233.6 12.3 232 10.2
2012-04-27 08:24:37 51°14.603 2°54.437 231 12.3 231 9.9
2012-04-27 08:24:43 51°14.589 2°54.412 229.4 12.4 229 10.1
2012-04-27 08:24:48 51°14.577 2°54.392 228 12.5 228 10.1
2012-04-27 08:24:53 51°14.566 2°54.371 227 12.5 228 10.1
2012-04-27 08:24:57 51°14.557 2°54.354 227 12.5 229 9.8
2012-04-27 08:25:03 51°14.543 2°54.329 227.1 12.5 229 9.9
2012-04-27 08:25:08 51°14.531 2°54.309 226.4 12.6 227 9.7
2012-04-27 08:25:13 51°14.52 2°54.289 225.9 12.6 228 9.7
2012-04-27 08:25:17 51°14.51 2°54.273 225.7 12.5 227 9.7
2012-04-27 08:25:23 51°14.496 2°54.248 225.8 12.5 229 9.3
2012-04-27 08:25:28 51°14.485 2°54.227 226.8 12.6 230 9.4
2012-04-27 08:25:33 51°14.474 2°54.205 228 12.6 231 9.6
2012-04-27 08:25:38 51°14.463 2°54.184 229.5 12.5 230 9.9
2012-04-27 08:25:43 51°14.451 2°54.163 228.8 12.6 229 9.6
2012-04-27 08:25:48 51°14.44 2°54.142 227.5 12.6 228 9.7
2012-04-27 08:25:53 51°14.428 2°54.122 226.9 12.6 227 9.6
2012-04-27 08:25:57 51°14.418 2°54.106 225.1 12.6 226 9.8
2012-04-27 08:26:03 51°14.403 2°54.083 224 12.6 224 9.4
2012-04-27 08:26:08 51°14.391 2°54.062 223 12.7 227 9.4
2012-04-27 08:26:13 51°14.379 2°54.042 224.4 12.7 227 9.4
2012-04-27 08:26:17 51°14.37 2°54.026 225.8 12.6 228 9.2
2012-04-27 08:26:23 51°14.356 2°54.001 226.2 12.6 227 9.4
2012-04-27 08:26:28 51°14.344 2°53.98 226.2 12.6 227 9.3
2012-04-27 08:26:33 51°14.332 2°53.961 226 12.6 225 9.4
2012-04-27 08:26:37 51°14.322 2°53.944 224.5 12.7 225 9.6
2012-04-27 08:26:43 51°14.307 2°53.921 223.3 12.7 225 9.4
2012-04-27 08:26:48 51°14.295 2°53.901 223.6 12.7 227 9.1
2012-04-27 08:26:53 51°14.283 2°53.88 224.7 12.6 227 9.1
2012-04-27 08:26:57 51°14.274 2°53.863 226 12.6 228 9
2012-04-27 08:27:03 51°14.26 2°53.838 226.8 12.7 228 9
2012-04-27 08:27:08 51°14.248 2°53.818 227.3 12.7 228 8.9
2012-04-27 08:27:13 51°14.236 2°53.797 227.3 12.7 228 9.1
2012-04-27 08:27:18 51°14.225 2°53.776 227.6 12.6 229 8.7
2012-04-27 08:27:23 51°14.213 2°53.755 227.8 12.6 228 8.9
2012-04-27 08:27:28 51°14.201 2°53.734 227.4 12.7 228 9
2012-04-27 08:27:33 51°14.19 2°53.714 227.2 12.7 228 8.9
2012-04-27 08:27:38 51°14.178 2°53.693 226.9 12.6 228 9
2012-04-27 08:27:43 51°14.166 2°53.673 226.9 12.5 228 8.8
2012-04-27 08:27:48 51°14.154 2°53.652 226.5 12.6 228 8.7
2012-04-27 08:27:53 51°14.143 2°53.631 226.6 12.6 229 8.8
2012-04-27 08:27:58 51°14.131 2°53.611 226.9 12.4 227 8.9
2012-04-27 08:28:02 51°14.122 2°53.595 226.7 12.4 228 8.8
2012-04-27 08:28:08 51°14.108 2°53.571 226.8 11.9 227 8.8
2012-04-27 08:28:13 51°14.098 2°53.553 227.1 11.3 227 9.1
2012-04-27 08:28:18 51°14.087 2°53.535 226.5 10.9 226 9.2
2012-04-27 08:28:23 51°14.077 2°53.519 225.8 10.4 226 9.1
2012-04-27 08:28:28 51°14.068 2°53.503 225.1 9.8 226 9
2012-04-27 08:28:33 51°14.059 2°53.489 224.4 9.3 225 9
2012-04-27 08:28:37 51°14.052 2°53.478 223.3 8.8 224 9.2
2012-04-27 08:28:43 51°14.041 2°53.463 222.8 8.5 223 9.3
2012-04-27 08:28:48 51°14.033 2°53.451 221.8 8.1 223 9.3
2012-04-27 08:28:53 51°14.025 2°53.439 221.2 7.7 222 9.1
2012-04-27 08:28:57 51°14.019 2°53.43 220 7.5 221 9.4
2012-04-27 08:29:03 51°14.01 2°53.417 219.8 7.3 222 9.3
2012-04-27 08:29:08 51°14.003 2°53.407 219.9 7.1 221 9.2
2012-04-27 08:29:13 51°13.996 2°53.397 219.7 6.9 221 9.3
2012-04-27 08:29:18 51°13.989 2°53.387 220 6.8 222 9.2
2012-04-27 08:29:22 51°13.983 2°53.379 220 6.6 222 9.2
2012-04-27 08:29:28 51°13.975 2°53.367 220.7 6.5 223 9.2
2012-04-27 08:29:33 51°13.969 2°53.358 221.9 6.4 224 9.4
2012-04-27 08:29:38 51°13.963 2°53.348 223.4 6.3 226 9.4
2012-04-27 08:29:42 51°13.958 2°53.34 224.4 6.2 227 9.3
2012-04-27 08:29:48 51°13.952 2°53.328 225.9 6.1 228 9.2
2012-04-27 08:29:53 51°13.946 2°53.317 227.4 6 230 9.3
2012-04-27 08:29:57 51°13.942 2°53.309 229.3 6 231 9.3
2012-04-27 08:30:03 51°13.936 2°53.297 230.8 5.9 233 9.2
2012-04-27 08:30:08 51°13.931 2°53.286 232.2 5.8 233 9.1
2012-04-27 08:30:13 51°13.927 2°53.276 233.8 5.7 236 9.1
2012-04-27 08:30:17 51°13.923 2°53.268 234.7 5.7 235 9.3
2012-04-27 08:30:23 51°13.918 2°53.255 235.2 5.7 237 9.3
2012-04-27 08:30:28 51°13.913 2°53.245 235.9 5.6 236 9.3
2012-04-27 08:30:33 51°13.909 2°53.234 236.2 5.6 238 9.4
2012-04-27 08:30:38 51°13.905 2°53.224 236.6 5.4 237 9.3
2012-04-27 08:30:43 51°13.901 2°53.214 236.6 5.2 239 9.2
2012-04-27 08:30:48 51°13.898 2°53.205 236.6 5.1 237 9.4
2012-04-27 08:30:53 51°13.894 2°53.196 236.5 4.9 237 9.4
2012-04-27 08:30:57 51°13.891 2°53.189 236 4.8 237 9.3
2012-04-27 08:31:03 51°13.886 2°53.178 235.2 4.7 236 9.2
2012-04-27 08:31:08 51°13.883 2°53.17 234.3 4.6 236 9.2
2012-04-27 08:31:13 51°13.879 2°53.162 233.7 4.5 234 9.4
2012-04-27 08:31:17 51°13.876 2°53.155 233.1 4.4 235 9.4
2012-04-27 08:31:23 51°13.872 2°53.146 232.2 4.3 233 9.4
2012-04-27 08:31:28 51°13.869 2°53.139 231.3 4.2 232 9.4
2012-04-27 08:31:33 51°13.865 2°53.132 230.5 4.2 233 9.5
2012-04-27 08:31:37 51°13.862 2°53.126 229.9 4.1 232 9.4
2012-04-27 08:31:43 51°13.858 2°53.118 229.4 4.1 231 9.3
2012-04-27 08:31:48 51°13.855 2°53.111 228.7 4 232 9.3
2012-04-27 08:31:53 51°13.851 2°53.104 228.5 4 229 9.4
2012-04-27 08:31:57 51°13.848 2°53.099 228 3.9 232 9.5
2012-04-27 08:32:02 51°13.845 2°53.092 227.8 3.9 229 9.4
2012-04-27 08:32:08 51°13.841 2°53.084 227.5 3.8 232 9.4
2012-04-27 08:32:13 51°13.838 2°53.078 227.1 3.8 228 9.4
2012-04-27 08:32:18 51°13.834 2°53.071 227.1 3.8 233 9.4
2012-04-27 08:32:23 51°13.831 2°53.066 227 3.6 227 9.6
2012-04-27 08:32:28 51°13.828 2°53.059 227.3 3.5 233 9.3
2012-04-27 08:32:33 51°13.825 2°53.054 227.3 3.3 227 9.3
2012-04-27 08:32:38 51°13.822 2°53.048 227.1 3.3 232 9.4
2012-04-27 08:32:43 51°13.819 2°53.043 227.3 3.1 227 9.5
2012-04-27 08:32:48 51°13.816 2°53.038 227.3 3.1 230 9.5
2012-04-27 08:32:53 51°13.814 2°53.033 226.9 3 228 9.4
2012-04-27 08:32:57 51°13.812 2°53.029 226.8 2.9 227 9.6
2012-04-27 08:33:03 51°13.809 2°53.023 226.4 2.9 228 9.5
2012-04-27 08:33:08 51°13.806 2°53.019 226.2 2.8 228 9.5
2012-04-27 08:33:13 51°13.804 2°53.014 225.8 2.7 229 9.4
2012-04-27 08:33:17 51°13.802 2°53.011 225.9 2.7 228 9.5
2012-04-27 08:33:22 51°13.8 2°53.006 226 2.6 230 9.3
2012-04-27 08:33:28 51°13.797 2°53.001 226.3 2.5 228 9.5
2012-04-27 08:33:33 51°13.795 2°52.997 226.5 2.5 232 9.4
2012-04-27 08:33:37 51°13.793 2°52.994 227.3 2.4 230 9.5
2012-04-27 08:33:42 51°13.791 2°52.99 227.6 2.4 231 9.4
2012-04-27 08:33:48 51°13.788 2°52.985 228 2.3 230 9.5
2012-04-27 08:33:53 51°13.786 2°52.981 228.3 2.3 232 9.3
2012-04-27 08:33:58 51°13.784 2°52.977 228.9 2.3 233 9.5
2012-04-27 08:34:02 51°13.783 2°52.974 229.3 2.2 233 9.5
2012-04-27 08:34:08 51°13.781 2°52.97 229.9 2.2 235 9.4
2012-04-27 08:34:13 51°13.779 2°52.966 230.3 2.1 236 9.5
2012-04-27 08:34:18 51°13.777 2°52.962 231 2.1 236 9.5
2012-04-27 08:34:23 51°13.776 2°52.958 231.7 2.1 238 9.5
2012-04-27 08:34:28 51°13.774 2°52.954 233 2 237 9.4
2012-04-27 08:34:33 51°13.773 2°52.95 233.7 2 239 9.5
2012-04-27 08:34:37 51°13.772 2°52.947 234.6 2 238 9.5
2012-04-27 08:34:43 51°13.77 2°52.943 235.4 1.9 240 9.5
2012-04-27 08:34:48 51°13.769 2°52.939 236 1.9 240 9.5
2012-04-27 08:34:53 51°13.768 2°52.936 236.7 1.8 243 9.4
2012-04-27 08:34:58 51°13.767 2°52.932 237.4 1.8 241 9.6
2012-04-27 08:35:03 51°13.766 2°52.929 238.1 1.8 245 9.5
2012-04-27 08:35:08 51°13.764 2°52.925 238.7 1.8 246 9.4
2012-04-27 08:35:13 51°13.764 2°52.921 239 1.8 247 9.4
2012-04-27 08:35:18 51°13.762 2°52.918 239.5 1.8 246 9.4
2012-04-27 08:35:23 51°13.762 2°52.914 240.1 1.8 249 9.5
2012-04-27 08:35:28 51°13.761 2°52.911 240.5 1.8 249 9.4
2012-04-27 08:35:33 51°13.76 2°52.907 241.1 1.8 250 9.4
2012-04-27 08:35:37 51°13.759 2°52.905 241.7 1.7 246 9.5
2012-04-27 08:35:43 51°13.758 2°52.9 242.1 1.7 252 9.4
2012-04-27 08:35:48 51°13.757 2°52.897 242.5 1.7 245 9.4
2012-04-27 08:35:53 51°13.757 2°52.893 242.5 1.7 251 9.5
2012-04-27 08:35:57 51°13.756 2°52.891 242.5 1.7 248 9.4
2012-04-27 08:36:03 51°13.755 2°52.887 242.5 1.6 251 9.5
2012-04-27 08:36:08 51°13.754 2°52.883 242.5 1.6 248 9.5
2012-04-27 08:36:13 51°13.753 2°52.88 242.5 1.6 252 9.4
2012-04-27 08:36:17 51°13.752 2°52.878 242.9 1.6 243 9.5
2012-04-27 08:36:23 51°13.752 2°52.874 242.6 1.6 253 9.5
2012-04-27 08:36:28 51°13.751 2°52.871 242.6 1.5 247 9.5
2012-04-27 08:36:33 51°13.751 2°52.868 242.5 1.5 258 9.5
2012-04-27 08:36:38 51°13.75 2°52.865 242.8 1.5 247 9.6
2012-04-27 08:36:43 51°13.749 2°52.862 243.2 1.4 258 9.5
2012-04-27 08:36:48 51°13.749 2°52.859 243.5 1.4 250 9.6
2012-04-27 08:36:53 51°13.748 2°52.855 244.1 1.6 257 9.6
2012-04-27 08:36:57 51°13.748 2°52.853 244.9 1.7 250 9.5
2012-04-27 08:37:03 51°13.747 2°52.848 246.1 1.9 256 9.5
2012-04-27 08:37:08 51°13.746 2°52.844 248.3 2 255 9.4
2012-04-27 08:37:13 51°13.746 2°52.839 251 2.2 259 9.5
2012-04-27 08:37:17 51°13.745 2°52.835 254 2.3 259 9.5
2012-04-27 08:37:23 51°13.744 2°52.829 257.6 2.4 262 9.5
2012-04-27 08:37:28 51°13.744 2°52.823 261.5 2.6 262 9.6
2012-04-27 08:37:33 51°13.744 2°52.817 265.7 2.7 268 9.6
2012-04-27 08:37:37 51°13.744 2°52.812 270.1 2.8 269 9.7
2012-04-27 08:37:43 51°13.744 2°52.804 274.4 2.9 276 9.5
2012-04-27 08:37:48 51°13.744 2°52.798 278.5 3 275 9.7
2012-04-27 08:37:53 51°13.745 2°52.791 282.8 3 282 9.7
2012-04-27 08:37:57 51°13.746 2°52.786 287 3.1 284 9.5
2012-04-27 08:38:02 51°13.747 2°52.779 291.1 3.1 288 9.5
2012-04-27 08:38:08 51°13.749 2°52.772 295.4 3.2 293 9.5
2012-04-27 08:38:13 51°13.751 2°52.765 299.8 3.2 295 9.4
2012-04-27 08:38:17 51°13.753 2°52.76 304.2 3.3 301 9.5
2012-04-27 08:38:23 51°13.756 2°52.752 308.8 3.3 303 9.7
2012-04-27 08:38:28 51°13.759 2°52.747 313.3 3.3 310 9.5
2012-04-27 08:38:33 51°13.762 2°52.742 317.9 3.3 312 9.4
2012-04-27 08:38:37 51°13.765 2°52.738 322.3 3.3 318 9.5
2012-04-27 08:38:43 51°13.769 2°52.732 326.3 3.3 320 9.7
2012-04-27 08:38:48 51°13.773 2°52.728 330 3.3 325 9.7
2012-04-27 08:38:53 51°13.777 2°52.724 333.7 3.4 328 9.9
2012-04-27 08:38:58 51°13.781 2°52.721 336.9 3.4 332 9.8
2012-04-27 08:39:02 51°13.785 2°52.718 340.2 3.5 334 9.7
2012-04-27 08:39:08 51°13.79 2°52.714 343.3 3.5 339 9.6
2012-04-27 08:39:13 51°13.794 2°52.712 346.4 3.5 340 9.8
2012-04-27 08:39:18 51°13.799 2°52.708 349.6 3.6 337 9.7
2012-04-27 08:39:23 51°13.804 2°52.707 352.5 3.6 349 9.6
2012-04-27 08:39:28 51°13.809 2°52.705 354.3 3.6 342 9.6
2012-04-27 08:39:33 51°13.814 2°52.703 355.3 3.7 348 9.7
2012-04-27 08:39:37 51°13.818 2°52.701 355.7 3.8 342 9.6
2012-04-27 08:39:43 51°13.824 2°52.699 355.4 3.7 347 9.8
2012-04-27 08:39:48 51°13.828 2°52.696 353.6 3.7 338 9.9
2012-04-27 08:39:53 51°13.834 2°52.692 349.4 4 336 9.8
2012-04-27 08:39:57 51°13.838 2°52.688 343.8 4.2 329 9.8
2012-04-27 08:40:03 51°13.844 2°52.681 336.1 4.5 319 9.8
2012-04-27 08:40:08 51°13.848 2°52.674 328 4.6 312 9.8
2012-04-27 08:40:13 51°13.852 2°52.665 319.7 4.8 303 9.9
2012-04-27 08:40:18 51°13.855 2°52.655 311.2 4.9 296 9.8
2012-04-27 08:40:22 51°13.856 2°52.646 303.3 5 289 9.8
2012-04-27 08:40:28 51°13.858 2°52.633 295.5 5 283 10
2012-04-27 08:40:33 51°13.859 2°52.622 288.2 5.1 278 10
2012-04-27 08:40:38 51°13.859 2°52.61 281 5.1 271 10
2012-04-27 08:40:42 51°13.859 2°52.601 273.9 5.1 265 10
2012-04-27 08:40:48 51°13.857 2°52.588 267 5.1 259 10
2012-04-27 08:40:53 51°13.855 2°52.577 260 5.1 253 10.1
2012-04-27 08:40:57 51°13.853 2°52.569 253 5.1 247 10.1
2012-04-27 08:41:03 51°13.848 2°52.557 246.1 5.1 240 10.1
2012-04-27 08:41:08 51°13.844 2°52.548 238.9 5.1 235 10.1
2012-04-27 08:41:13 51°13.84 2°52.54 231.8 4.9 228 9.9
2012-04-27 08:41:17 51°13.836 2°52.534 224.6 4.8 223 9.9
2012-04-27 08:41:23 51°13.83 2°52.527 217.8 4.7 216 10.1
2012-04-27 08:41:28 51°13.824 2°52.521 211.3 4.5 210 10.1
2012-04-27 08:41:33 51°13.819 2°52.518 205.8 4.3 205 10
2012-04-27 08:41:38 51°13.813 2°52.515 198.1 4.1 198 10.3
2012-04-27 08:41:43 51°13.808 2°52.513 192.2 3.9 194 10.2
2012-04-27 08:41:48 51°13.803 2°52.511 185.5 3.7 188 10.1
2012-04-27 08:41:53 51°13.798 2°52.511 180.7 3.6 184 10.1
2012-04-27 08:41:57 51°13.794 2°52.511 174 3.4 179 10.1
2012-04-27 08:42:03 51°13.789 2°52.512 168 3.2 173 10.3
2012-04-27 08:42:08 51°13.785 2°52.514 162.2 3.2 167 10.1
2012-04-27 08:42:13 51°13.781 2°52.516 157.9 3.1 163 10.1
2012-04-27 08:42:17 51°13.777 2°52.518 153.2 3.1 160 10.2
2012-04-27 08:42:23 51°13.773 2°52.521 151.3 3 156 10.2
2012-04-27 08:42:28 51°13.769 2°52.524 148.6 2.9 157 10
2012-04-27 08:42:33 51°13.766 2°52.527 147.2 2.8 153 10
2012-04-27 08:42:37 51°13.763 2°52.528 146 2.8 160 9.9
2012-04-27 08:42:43 51°13.759 2°52.532 145.4 2.6 148 9.9
2012-04-27 08:42:48 51°13.756 2°52.534 144.9 2.6 156 10
2012-04-27 08:42:53 51°13.753 2°52.537 144.5 2.5 150 9.8
2012-04-27 08:42:57 51°13.75 2°52.539 144.6 2.4 154 9.8
2012-04-27 08:43:02 51°13.748 2°52.541 144.7 2.3 151 9.8
2012-04-27 08:43:08 51°13.744 2°52.544 144.9 2.2 153 9.8
2012-04-27 08:43:13 51°13.742 2°52.546 145 2.1 153 9.9
2012-04-27 08:43:18 51°13.739 2°52.548 145.2 2 152 9.8
2012-04-27 08:43:23 51°13.737 2°52.55 145.1 2 153 9.7
2012-04-27 08:43:28 51°13.734 2°52.552 144.8 1.9 149 9.7
2012-04-27 08:43:33 51°13.732 2°52.554 144.5 1.8 154 9.7
2012-04-27 08:43:37 51°13.731 2°52.555 144.4 1.7 149 9.8
2012-04-27 08:43:43 51°13.728 2°52.557 144 1.6 151 9.8
2012-04-27 08:43:48 51°13.726 2°52.559 143.8 1.6 149 9.7
2012-04-27 08:43:53 51°13.725 2°52.56 143.4 1.5 152 9.7
2012-04-27 08:43:57 51°13.723 2°52.562 143.2 1.5 148 9.8
2012-04-27 08:44:03 51°13.721 2°52.563 142.8 1.4 151 9.6
2012-04-27 08:44:08 51°13.72 2°52.565 142.5 1.3 149 9.7
2012-04-27 08:44:13 51°13.718 2°52.566 142.4 1.2 149 9.7
2012-04-27 08:44:17 51°13.717 2°52.567 142.2 1.2 148 9.7
2012-04-27 08:44:23 51°13.716 2°52.569 142 1.1 152 9.7
2012-04-27 08:44:28 51°13.714 2°52.57 141.9 1.1 147 9.7
2012-04-27 08:44:33 51°13.713 2°52.571 141.6 1 154 9.6
2012-04-27 08:44:37 51°13.712 2°52.572 141.4 1 149 9.6
2012-04-27 08:44:42 51°13.711 2°52.573 141.1 1 154 9.6
2012-04-27 08:44:48 51°13.709 2°52.574 141 0.9 151 9.6
2012-04-27 08:44:53 51°13.708 2°52.575 140.9 0.9 151 9.6
2012-04-27 08:44:58 51°13.707 2°52.576 140.6 0.9 155 9.6
2012-04-27 08:45:02 51°13.707 2°52.577 140.4 0.8 154 9.6
2012-04-27 08:45:08 51°13.705 2°52.577 140 0.8 160 9.6
2012-04-27 08:45:13 51°13.704 2°52.578 139.9 0.8 156 9.7
2012-04-27 08:45:17 51°13.704 2°52.578 139.5 0.8 167 9.7
2012-04-27 08:45:23 51°13.703 2°52.579 139.5 0.7 153 9.7
2012-04-27 08:45:28 51°13.701 2°52.58 139.4 0.7 168 9.6
2012-04-27 08:45:33 51°13.701 2°52.58 139.6 0.7 155 9.6
2012-04-27 08:45:37 51°13.7 2°52.581 139.6 0.7 168 9.6
2012-04-27 08:45:43 51°13.699 2°52.581 139.8 0.6 158 9.7
2012-04-27 08:45:48 51°13.698 2°52.581 139.9 0.6 170 9.6
2012-04-27 08:45:53 51°13.697 2°52.582 140 0.6 159 9.6
2012-04-27 08:45:58 51°13.696 2°52.582 140 0.6 168 9.7
2012-04-27 08:46:03 51°13.696 2°52.582 139.7 0.6 166 9.7
2012-04-27 08:46:08 51°13.695 2°52.583 139.7 0.5 167 9.7
2012-04-27 08:46:13 51°13.694 2°52.583 139.3 0.6 170 9.7
2012-04-27 08:46:18 51°13.694 2°52.583 139.4 0.5 159 9.5
2012-04-27 08:46:23 51°13.693 2°52.583 139.2 0.5 175 9.6
2012-04-27 08:46:28 51°13.693 2°52.583 139.3 0.4 161 9.5
2012-04-27 08:46:33 51°13.692 2°52.584 139.1 0.4 172 9.7
2012-04-27 08:46:37 51°13.692 2°52.584 138.5 0.3 169 9.6
2012-04-27 08:46:43 51°13.691 2°52.584 138.1 0.4 168 9.7
2012-04-27 08:46:48 51°13.691 2°52.584 137.6 0.3 173 9.6
2012-04-27 08:46:53 51°13.69 2°52.584 137.2 0.3 169 9.6
2012-04-27 08:46:57 51°13.69 2°52.584 136.5 0.3 165 9.6
2012-04-27 08:47:03 51°13.69 2°52.584 135.9 0.3 174 9.6
2012-04-27 08:47:08 51°13.689 2°52.585 135.5 0.2 156 9.7
2012-04-27 08:47:13 51°13.689 2°52.585 135.1 0.3 175 9.6
2012-04-27 08:47:18 51°13.689 2°52.585 134.9 0.3 173 9.7
2012-04-27 08:47:22 51°13.689 2°52.585 134.5 0.3 186 9.7
2012-04-27 08:47:28 51°13.689 2°52.585 134.6 0.2 160 9.7
2012-04-27 08:47:33 51°13.688 2°52.585 134.4 0.3 192 9.6
2012-04-27 08:47:38 51°13.688 2°52.586 134.4 0.1 151 9.6
2012-04-27 08:47:43 51°13.688 2°52.585 134.2 0.3 197 9.7
2012-04-27 08:47:48 51°13.688 2°52.586 134.3 0.1 161 9.6
2012-04-27 08:47:53 51°13.687 2°52.585 134.1 0.3 206 9.6
2012-04-27 08:47:57 51°13.687 2°52.585 134.3 0.2 192 9.7
2012-04-27 08:48:03 51°13.686 2°52.585 134.4 0.3 206 9.7
2012-04-27 08:48:08 51°13.686 2°52.585 134.8 0.2 197 9.7
2012-04-27 08:48:13 51°13.686 2°52.585 135.1 0.2 212 9.6
2012-04-27 08:48:17 51°13.686 2°52.585 135.4 0.1 200 9.7
2012-04-27 08:48:23 51°13.686 2°52.584 135.5 0.2 214 9.7
2012-04-27 08:48:28 51°13.685 2°52.584 135.8 0.2 204 9.6
2012-04-27 08:48:33 51°13.685 2°52.584 135.9 0.2 212 9.6
2012-04-27 08:48:37 51°13.685 2°52.584 136.3 0.1 211 9.6
2012-04-27 08:48:43 51°13.684 2°52.583 136.5 0.2 225 9.6
2012-04-27 08:48:48 51°13.684 2°52.583 136.8 0.2 220 9.6
2012-04-27 08:48:53 51°13.684 2°52.583 137.1 0.2 225 9.6
2012-04-27 08:48:58 51°13.684 2°52.583 137.4 0.2 240 9.6
2012-04-27 08:49:03 51°13.684 2°52.582 137.7 0.2 235 9.6
2012-04-27 08:49:08 51°13.684 2°52.582 137.9 0.2 218 9.6
2012-04-27 08:49:13 51°13.684 2°52.582 138.1 0.2 227 9.7
2012-04-27 08:49:17 51°13.684 2°52.581 138.1 0.2 240 9.8
2012-04-27 08:49:23 51°13.684 2°52.581 138.3 0.1 251 9.6
2012-04-27 08:49:28 51°13.683 2°52.581 138.6 0.2 251 9.7
2012-04-27 08:49:33 51°13.683 2°52.581 138.8 0.2 263 9.7
2012-04-27 08:49:37 51°13.683 2°52.58 139 0.1 266 9.7
2012-04-27 08:49:43 51°13.683 2°52.58 138.9 0.2 257 9.6
2012-04-27 08:49:48 51°13.683 2°52.58 139 0.1 252 9.6
2012-04-27 08:49:53 51°13.683 2°52.58 138.8 0.2 257 9.6
2012-04-27 08:49:57 51°13.683 2°52.579 138.5 0.1 259 9.7
2012-04-27 08:50:03 51°13.683 2°52.579 138.1 0.1 281 9.7
2012-04-27 08:50:08 51°13.683 2°52.579 137.6 0.2 266 9.7
2012-04-27 08:50:13 51°13.683 2°52.578 137.2 0.2 279 9.7
2012-04-27 08:50:18 51°13.683 2°52.578 136.7 0.2 267 -999
2012-04-27 08:50:23 51°13.683 2°52.578 136.3 0.2 291 9.7
2012-04-27 08:50:28 51°13.683 2°52.577 135.8 0.2 280 9.6
2012-04-27 08:50:33 51°13.683 2°52.577 135.3 0.1 274 9.6
2012-04-27 08:50:38 51°13.683 2°52.577 135 0.2 261 -999
2012-04-27 08:50:44 51°13.684 2°52.576 134.9 0.1 270 -999
2012-04-27 08:50:49 51°13.684 2°52.576 134.7 0.2 263 -999
2012-04-27 08:50:54 51°13.684 2°52.575 134.4 0.2 272 9.7
2012-04-27 08:50:59 51°13.683 2°52.575 134.1 0.2 273 9.7
2012-04-27 08:51:04 51°13.684 2°52.574 133.6 0.2 277 9.7
2012-04-27 08:51:09 51°13.684 2°52.574 133.2 0.2 266 9.7
2012-04-27 08:51:13 51°13.684 2°52.574 132.9 0.2 275 9.8
2012-04-27 08:51:18 51°13.684 2°52.573 132.4 0.2 266 9.7
2012-04-27 08:51:23 51°13.684 2°52.573 132.2 0.2 265 9.7
2012-04-27 08:51:28 51°13.684 2°52.572 131.8 0.2 282 9.8
2012-04-27 08:51:33 51°13.684 2°52.572 131.5 0.3 268 9.8
2012-04-27 08:51:37 51°13.684 2°52.571 131.2 0.2 281 9.8
2012-04-27 08:51:43 51°13.684 2°52.571 130.7 0.2 262 9.7
2012-04-27 08:51:48 51°13.684 2°52.57 130.5 0.2 292 9.7
2012-04-27 08:51:53 51°13.684 2°52.569 130.1 0.3 263 9.9
2012-04-27 08:51:58 51°13.684 2°52.569 130 0.2 298 9.7
2012-04-27 08:52:02 51°13.684 2°52.569 129.7 0.3 278 9.8
2012-04-27 08:52:08 51°13.684 2°52.568 129.3 0.3 300 9.8
2012-04-27 08:52:13 51°13.684 2°52.567 129 0.3 269 9.7
2012-04-27 08:52:17 51°13.684 2°52.567 128.9 0.2 298 9.7
2012-04-27 08:52:23 51°13.684 2°52.566 128.6 0.3 263 9.7
2012-04-27 08:52:28 51°13.684 2°52.566 128.5 0.2 288 9.6
2012-04-27 08:52:33 51°13.684 2°52.565 128 0.3 270 9.7
2012-04-27 08:52:38 51°13.684 2°52.565 127.8 0.2 280 9.7
2012-04-27 08:52:43 51°13.684 2°52.564 127.8 0.3 264 9.6
2012-04-27 08:52:48 51°13.684 2°52.563 127.6 0.2 272 9.6
2012-04-27 08:52:53 51°13.684 2°52.563 127.3 0.3 274 9.7
2012-04-27 08:52:58 51°13.684 2°52.562 127.2 0.3 286 9.7
2012-04-27 08:53:03 51°13.684 2°52.562 126.9 0.3 275 9.6
2012-04-27 08:53:08 51°13.684 2°52.561 126.5 0.3 275 9.6
2012-04-27 08:53:13 51°13.684 2°52.56 126.1 0.3 271 9.7
2012-04-27 08:53:17 51°13.684 2°52.56 125.7 0.3 280 9.6
2012-04-27 08:53:23 51°13.684 2°52.559 125.3 0.3 279 9.7
2012-04-27 08:53:28 51°13.685 2°52.559 124.7 0.2 280 9.6
2012-04-27 08:53:33 51°13.685 2°52.558 124.5 0.3 290 9.7
2012-04-27 08:53:37 51°13.685 2°52.558 123.9 0.4 285 9.7
2012-04-27 08:53:43 51°13.685 2°52.557 123.5 0.3 284 9.7
2012-04-27 08:53:48 51°13.685 2°52.556 123 0.3 285 9.7
2012-04-27 08:53:53 51°13.686 2°52.556 122.5 0.3 288 9.6
2012-04-27 08:53:58 51°13.686 2°52.555 122.2 0.3 288 9.6
2012-04-27 08:54:02 51°13.686 2°52.554 121.9 0.3 275 9.6
2012-04-27 08:54:08 51°13.686 2°52.554 121.8 0.3 287 9.6
2012-04-27 08:54:13 51°13.686 2°52.553 121.7 0.3 280 9.6
2012-04-27 08:54:17 51°13.686 2°52.552 121.7 0.3 293 9.6
2012-04-27 08:54:23 51°13.686 2°52.552 121.6 0.3 290 9.6
2012-04-27 08:54:28 51°13.686 2°52.551 121.6 0.3 289 9.6
2012-04-27 08:54:33 51°13.686 2°52.55 121.4 0.3 285 9.5
2012-04-27 08:54:38 51°13.687 2°52.55 121.3 0.3 283 9.6
2012-04-27 08:54:43 51°13.687 2°52.549 121.2 0.3 294 9.5
2012-04-27 08:54:48 51°13.687 2°52.548 120.8 0.3 269 9.6
2012-04-27 08:54:53 51°13.687 2°52.548 120.6 0.3 291 9.6
2012-04-27 08:54:58 51°13.687 2°52.547 120.3 0.4 269 9.5
2012-04-27 08:55:03 51°13.687 2°52.546 120.1 0.3 289 9.5
2012-04-27 08:55:08 51°13.687 2°52.546 119.8 0.3 274 9.6
2012-04-27 08:55:13 51°13.687 2°52.545 119.7 0.3 294 9.6
2012-04-27 08:55:17 51°13.687 2°52.544 119.4 0.4 264 9.5
2012-04-27 08:55:23 51°13.687 2°52.544 119.4 0.3 292 9.5
2012-04-27 08:55:28 51°13.687 2°52.543 119.2 0.3 261 9.6
2012-04-27 08:55:33 51°13.687 2°52.542 119.1 0.3 288 9.6
2012-04-27 08:55:37 51°13.687 2°52.542 118.8 0.3 274 9.5
2012-04-27 08:55:43 51°13.688 2°52.541 118.6 0.3 278 9.7
2012-04-27 08:55:48 51°13.688 2°52.541 118.3 0.3 268 9.5
2012-04-27 08:55:53 51°13.688 2°52.54 118.2 0.2 298 9.6
2012-04-27 08:55:57 51°13.688 2°52.54 117.9 0.3 269 9.5
2012-04-27 08:56:03 51°13.688 2°52.539 118.2 0.2 309 9.6
2012-04-27 08:56:08 51°13.688 2°52.539 118 0.3 263 9.6
2012-04-27 08:56:13 51°13.689 2°52.538 118 0.2 299 9.5
2012-04-27 08:56:17 51°13.689 2°52.538 117.9 0.3 275 9.6
2012-04-27 08:56:22 51°13.689 2°52.537 117.7 0.2 296 9.6
2012-04-27 08:56:28 51°13.689 2°52.536 117.6 0.3 273 9.6
2012-04-27 08:56:33 51°13.689 2°52.536 117.6 0.3 291 9.6
2012-04-27 08:56:37 51°13.689 2°52.535 117.4 0.3 275 9.6
2012-04-27 08:56:43 51°13.689 2°52.534 117.1 0.3 292 9.5
2012-04-27 08:56:48 51°13.689 2°52.534 116.9 0.3 278 9.5
2012-04-27 08:56:53 51°13.689 2°52.533 116.7 0.3 286 9.5
2012-04-27 08:56:58 51°13.689 2°52.533 116.4 0.2 286 9.6
2012-04-27 08:57:03 51°13.689 2°52.532 116.2 0.3 273 9.6
2012-04-27 08:57:08 51°13.689 2°52.532 116.2 0.3 292 9.6
2012-04-27 08:57:13 51°13.689 2°52.531 116 0.3 286 9.6
2012-04-27 08:57:18 51°13.689 2°52.53 115.6 0.3 282 9.7
2012-04-27 08:57:23 51°13.689 2°52.53 115.5 0.3 287 9.6
2012-04-27 08:57:28 51°13.69 2°52.529 115.5 0.3 293 9.5
2012-04-27 08:57:33 51°13.69 2°52.528 115.4 0.3 280 9.7
2012-04-27 08:57:37 51°13.69 2°52.528 115.1 0.3 289 9.6
2012-04-27 08:57:43 51°13.69 2°52.527 115.1 0.3 283 9.6
2012-04-27 08:57:48 51°13.69 2°52.526 115 0.4 273 9.6
2012-04-27 08:57:53 51°13.69 2°52.526 115 0.3 278 9.5
2012-04-27 08:57:57 51°13.69 2°52.525 114.9 0.4 277 9.6
2012-04-27 08:58:03 51°13.69 2°52.524 114.9 0.3 279 9.7
2012-04-27 08:58:08 51°13.69 2°52.523 114.8 0.4 270 9.6
2012-04-27 08:58:13 51°13.69 2°52.522 114.9 0.3 281 9.6
2012-04-27 08:58:18 51°13.69 2°52.522 114.8 0.4 272 9.6
2012-04-27 08:58:22 51°13.69 2°52.521 114.8 0.4 271 9.5
2012-04-27 08:58:28 51°13.69 2°52.52 114.9 0.4 272 9.6
2012-04-27 08:58:33 51°13.69 2°52.519 115 0.4 273 9.6
2012-04-27 08:58:37 51°13.691 2°52.519 115.3 0.3 280 9.6
2012-04-27 08:58:43 51°13.691 2°52.518 115.5 0.3 263 9.6
2012-04-27 08:58:48 51°13.691 2°52.517 116.1 0.3 276 9.5
2012-04-27 08:58:53 51°13.691 2°52.516 116.4 0.4 248 9.7
2012-04-27 08:58:58 51°13.691 2°52.516 117 0.3 271 9.7
2012-04-27 08:59:03 51°13.691 2°52.515 117.4 0.4 272 9.7
2012-04-27 08:59:08 51°13.691 2°52.514 117.9 0.3 271 9.7
2012-04-27 08:59:13 51°13.691 2°52.513 118.3 0.3 263 9.8
2012-04-27 08:59:18 51°13.691 2°52.513 118.6 0.3 269 9.6
2012-04-27 08:59:23 51°13.691 2°52.512 119.2 0.3 270 9.7
2012-04-27 08:59:28 51°13.691 2°52.511 119.5 0.3 266 9.7
2012-04-27 08:59:33 51°13.691 2°52.511 119.8 0.3 276 9.6
2012-04-27 08:59:38 51°13.691 2°52.51 119.9 0.3 264 9.7
2012-04-27 08:59:43 51°13.691 2°52.509 120.4 0.3 278 9.7
2012-04-27 08:59:48 51°13.691 2°52.509 120.6 0.3 258 9.7
2012-04-27 08:59:53 51°13.691 2°52.508 121 0.3 296 9.7
2012-04-27 08:59:57 51°13.691 2°52.508 121.2 0.3 257 9.7
2012-04-27 09:00:03 51°13.691 2°52.507 121.5 0.2 297 9.7
2012-04-27 09:00:08 51°13.691 2°52.506 121.7 0.3 266 9.8
2012-04-27 09:00:13 51°13.691 2°52.506 121.8 0.2 278 9.7
2012-04-27 09:00:18 51°13.691 2°52.505 121.9 0.3 269 9.7
2012-04-27 09:00:23 51°13.691 2°52.505 121.9 0.2 273 9.7
2012-04-27 09:00:28 51°13.691 2°52.504 121.9 0.2 274 9.7
2012-04-27 09:00:33 51°13.691 2°52.504 122 0.2 278 9.8
2012-04-27 09:00:37 51°13.692 2°52.503 122.1 0.2 274 9.7
2012-04-27 09:00:43 51°13.692 2°52.503 122.3 0.2 273 9.7
2012-04-27 09:00:48 51°13.692 2°52.502 122.7 0.2 262 9.6
2012-04-27 09:00:53 51°13.692 2°52.502 123.2 0.2 293 9.7
2012-04-27 09:00:58 51°13.692 2°52.501 123.4 0.3 262 9.7
2012-04-27 09:01:02 51°13.692 2°52.501 123.6 0.2 273 9.6
2012-04-27 09:01:08 51°13.692 2°52.5 123.9 0.2 277 9.7
2012-04-27 09:01:13 51°13.692 2°52.5 123.9 0.3 271 9.8
2012-04-27 09:01:17 51°13.692 2°52.5 123.9 0.2 274 9.7
2012-04-27 09:01:23 51°13.692 2°52.499 124 0.2 265 9.7
2012-04-27 09:01:28 51°13.692 2°52.498 123.9 0.2 275 9.7
2012-04-27 09:01:33 51°13.692 2°52.498 123.9 0.3 266 9.7
2012-04-27 09:01:38 51°13.692 2°52.497 123.8 0.2 271 9.6
2012-04-27 09:01:43 51°13.691 2°52.497 123.9 0.3 257 9.7
2012-04-27 09:01:48 51°13.691 2°52.496 123.9 0.3 268 9.7
2012-04-27 09:01:53 51°13.691 2°52.495 123.9 0.3 273 9.7
2012-04-27 09:01:58 51°13.691 2°52.495 123.8 0.3 262 9.7
2012-04-27 09:02:03 51°13.691 2°52.494 123.7 0.2 273 9.6
2012-04-27 09:02:08 51°13.691 2°52.494 123.5 0.3 254 9.7
2012-04-27 09:02:13 51°13.691 2°52.493 123.3 0.2 265 9.7
2012-04-27 09:02:17 51°13.691 2°52.492 123.2 0.3 265 9.7
2012-04-27 09:02:23 51°13.691 2°52.492 123.1 0.3 259 9.8
2012-04-27 09:02:28 51°13.691 2°52.491 123.2 0.3 260 9.7
2012-04-27 09:02:33 51°13.691 2°52.49 123.2 0.3 258 9.7
2012-04-27 09:02:37 51°13.691 2°52.49 123.4 0.2 265 9.6
2012-04-27 09:02:43 51°13.691 2°52.489 123.3 0.3 254 9.7
2012-04-27 09:02:48 51°13.691 2°52.489 123.4 0.2 272 9.7
2012-04-27 09:02:53 51°13.691 2°52.488 123.3 0.2 255 9.7
2012-04-27 09:02:57 51°13.691 2°52.488 123.2 0.2 274 9.6
2012-04-27 09:03:03 51°13.691 2°52.487 123.2 0.2 256 9.7
2012-04-27 09:03:08 51°13.691 2°52.487 123.2 0.2 271 9.7
2012-04-27 09:03:13 51°13.691 2°52.486 123.2 0.2 249 9.7
2012-04-27 09:03:18 51°13.691 2°52.486 123.2 0.2 256 9.6
2012-04-27 09:03:22 51°13.691 2°52.485 123.1 0.2 255 9.7
2012-04-27 09:03:28 51°13.691 2°52.485 123 0.3 259 9.8
2012-04-27 09:03:33 51°13.691 2°52.484 123 0.2 259 9.8
2012-04-27 09:03:38 51°13.691 2°52.483 122.7 0.3 246 9.7
2012-04-27 09:03:43 51°13.69 2°52.483 122.9 0.2 260 9.7
2012-04-27 09:03:48 51°13.69 2°52.482 122.9 0.3 248 9.7
2012-04-27 09:03:53 51°13.69 2°52.482 123 0.3 263 9.7
2012-04-27 09:03:58 51°13.69 2°52.481 123 0.4 248 9.8
2012-04-27 09:04:03 51°13.69 2°52.48 123.1 0.3 255 9.7
2012-04-27 09:04:08 51°13.69 2°52.479 123.3 0.3 256 9.8
2012-04-27 09:04:13 51°13.69 2°52.479 123.3 0.3 254 9.7
2012-04-27 09:04:17 51°13.69 2°52.478 123.5 0.3 258 9.7
2012-04-27 09:04:23 51°13.69 2°52.477 123.5 0.4 243 9.7
2012-04-27 09:04:28 51°13.689 2°52.477 123.8 0.3 256 9.7
2012-04-27 09:04:33 51°13.689 2°52.476 123.8 0.3 242 9.8
2012-04-27 09:04:37 51°13.689 2°52.476 124.3 0.2 245 9.7
2012-04-27 09:04:43 51°13.689 2°52.475 124.7 0.3 235 9.7
2012-04-27 09:04:48 51°13.689 2°52.475 125 0.1 258 9.7
2012-04-27 09:04:53 51°13.689 2°52.474 125 0.3 221 9.7
2012-04-27 09:04:58 51°13.688 2°52.474 125.3 0.2 192 9.8
2012-04-27 09:05:02 51°13.688 2°52.474 125.5 0.4 191 9.6
2012-04-27 09:05:08 51°13.687 2°52.474 125.8 0.3 163 9.6
2012-04-27 09:05:13 51°13.687 2°52.474 125.9 0.5 178 9.7
2012-04-27 09:05:17 51°13.686 2°52.474 126.4 0.4 155 9.7
2012-04-27 09:05:23 51°13.685 2°52.475 126.4 0.6 164 9.7
2012-04-27 09:05:28 51°13.685 2°52.476 127 0.6 149 9.7
2012-04-27 09:05:33 51°13.684 2°52.476 127.2 0.7 154 9.7
2012-04-27 09:05:38 51°13.683 2°52.478 127.8 0.8 144 9.7
2012-04-27 09:05:43 51°13.681 2°52.479 128 1 152 9.6
2012-04-27 09:05:48 51°13.68 2°52.48 128.7 1.1 144 9.6
2012-04-27 09:05:53 51°13.679 2°52.481 129.2 1.2 149 9.7
2012-04-27 09:05:58 51°13.677 2°52.483 129.6 1.2 144 9.7
2012-04-27 09:06:03 51°13.676 2°52.485 130 1.4 148 9.6
2012-04-27 09:06:08 51°13.674 2°52.486 130.7 1.4 142 9.6
2012-04-27 09:06:13 51°13.672 2°52.488 130.9 1.5 150 9.7
2012-04-27 09:06:17 51°13.671 2°52.49 131.7 1.5 144 9.6
2012-04-27 09:06:23 51°13.669 2°52.492 132 1.6 148 9.6
2012-04-27 09:06:28 51°13.667 2°52.494 132.6 1.6 142 9.8
2012-04-27 09:06:33 51°13.665 2°52.496 132.9 1.7 148 9.7
2012-04-27 09:06:38 51°13.663 2°52.499 133.4 1.7 143 9.7
2012-04-27 09:06:43 51°13.662 2°52.501 133.8 1.8 139 9.8
2012-04-27 09:06:48 51°13.659 2°52.503 134 1.9 151 9.6
2012-04-27 09:06:53 51°13.657 2°52.506 134.5 1.9 142 9.6
2012-04-27 09:06:58 51°13.655 2°52.508 134.7 1.9 149 9.6
2012-04-27 09:07:03 51°13.653 2°52.511 134.9 1.8 141 9.7
2012-04-27 09:07:08 51°13.651 2°52.513 133.3 1.9 146 -999
2012-04-27 09:07:13 51°13.649 2°52.516 131.1 2 137 9.8
2012-04-27 09:07:18 51°13.647 2°52.519 128.8 2.2 137 9.5
2012-04-27 09:07:23 51°13.644 2°52.523 125.7 2.4 127 9.7
2012-04-27 09:07:28 51°13.643 2°52.528 119.8 2.5 123 9.5
2012-04-27 09:07:33 51°13.641 2°52.533 113.9 2.7 114 -999
2012-04-27 09:07:39 51°13.64 2°52.541 105.6 2.7 105 -999
2012-04-27 09:07:44 51°13.64 2°52.547 98.8 2.8 96 9.5
2012-04-27 09:07:49 51°13.64 2°52.553 91.8 2.8 90 9.6
2012-04-27 09:07:53 51°13.64 2°52.557 85.9 2.6 85 9.5
2012-04-27 09:07:58 51°13.641 2°52.562 80.2 2.4 79 9.5
2012-04-27 09:08:03 51°13.641 2°52.567 76.4 2.3 76 9.5
2012-04-27 09:08:08 51°13.642 2°52.572 74.2 2.2 77 9.6
2012-04-27 09:08:13 51°13.643 2°52.577 73.4 2.2 77 9.5
2012-04-27 09:08:17 51°13.643 2°52.581 73.6 2.2 77 9.5
2012-04-27 09:08:23 51°13.644 2°52.586 74.7 2.2 80 9.5
2012-04-27 09:08:28 51°13.644 2°52.591 76.5 2.2 82 9.5
2012-04-27 09:08:33 51°13.644 2°52.596 79.1 2.2 92 9.4
2012-04-27 09:08:38 51°13.645 2°52.601 81.6 2.1 87 9.3
2012-04-27 09:08:43 51°13.645 2°52.605 83.8 2.1 88 9.4
2012-04-27 09:08:48 51°13.645 2°52.61 85.7 2 90 9.4
2012-04-27 09:08:53 51°13.645 2°52.614 86.5 2 89 9.4
2012-04-27 09:08:58 51°13.645 2°52.619 86.1 2.1 87 9.4
2012-04-27 09:09:03 51°13.645 2°52.624 83.7 2.2 82 9.3
2012-04-27 09:09:08 51°13.646 2°52.628 80.2 2.2 78 9.3
2012-04-27 09:09:13 51°13.647 2°52.633 75.6 2.3 71 9.3
2012-04-27 09:09:17 51°13.648 2°52.637 70.6 2.4 64 9.3
2012-04-27 09:09:23 51°13.65 2°52.643 65.2 2.7 57 9.4
2012-04-27 09:09:28 51°13.653 2°52.648 58.9 2.8 49 9.3
2012-04-27 09:09:33 51°13.656 2°52.652 51.5 2.9 37 9.4
2012-04-27 09:09:37 51°13.659 2°52.654 44.4 3.1 32 9.5
2012-04-27 09:09:43 51°13.664 2°52.657 37.1 3.2 20 9.5
2012-04-27 09:09:48 51°13.669 2°52.659 29.6 3.3 13 9.4
2012-04-27 09:09:53 51°13.674 2°52.659 22.5 3.4 5 9.4
2012-04-27 09:09:57 51°13.677 2°52.659 15.1 3.5 356 9.6
2012-04-27 09:10:03 51°13.683 2°52.657 8 3.5 350 9.4
2012-04-27 09:10:08 51°13.688 2°52.655 1.2 3.5 344 9.4
2012-04-27 09:10:13 51°13.693 2°52.653 356.1 3.6 341 9.6
2012-04-27 09:10:17 51°13.696 2°52.65 352.8 3.6 340 9.3
2012-04-27 09:10:23 51°13.702 2°52.647 350.9 3.6 338 9.5
2012-04-27 09:10:28 51°13.707 2°52.644 349.5 3.6 337 9.5
2012-04-27 09:10:33 51°13.711 2°52.641 348.4 3.6 335 9.3
2012-04-27 09:10:37 51°13.715 2°52.638 347.7 3.5 335 9.3
2012-04-27 09:10:43 51°13.72 2°52.634 347 3.5 334 9.3
2012-04-27 09:10:48 51°13.724 2°52.63 346.4 3.4 333 9.4
2012-04-27 09:10:53 51°13.728 2°52.627 345.8 3.4 332 9.4
2012-04-27 09:10:58 51°13.732 2°52.623 345 3.4 331 9.4
2012-04-27 09:11:03 51°13.736 2°52.62 344.2 3.3 331 9.5
2012-04-27 09:11:08 51°13.74 2°52.616 343.3 3.3 330 9.6
2012-04-27 09:11:13 51°13.744 2°52.613 342.4 3.2 329 9.4
2012-04-27 09:11:18 51°13.748 2°52.609 341.9 3.2 328 9.6
2012-04-27 09:11:23 51°13.752 2°52.605 341.2 3.2 328 9.7
2012-04-27 09:11:28 51°13.755 2°52.601 340.5 3.2 327 9.5
2012-04-27 09:11:33 51°13.759 2°52.597 339.6 3.1 325 9.5
2012-04-27 09:11:37 51°13.761 2°52.594 338.9 3.1 325 9.4
2012-04-27 09:11:43 51°13.766 2°52.589 337.8 3 323 9.7
2012-04-27 09:11:48 51°13.769 2°52.585 337 3 323 9.7
2012-04-27 09:11:53 51°13.772 2°52.581 336.6 3 322 9.7
2012-04-27 09:11:57 51°13.775 2°52.578 335.5 3 320 9.8
2012-04-27 09:12:03 51°13.779 2°52.572 334.7 3 318 9.6
2012-04-27 09:12:08 51°13.782 2°52.568 333.5 3 316 9.5
2012-04-27 09:12:13 51°13.785 2°52.563 332.6 3 316 9.5
2012-04-27 09:12:18 51°13.788 2°52.559 331.5 3 314 9.6
2012-04-27 09:12:23 51°13.79 2°52.554 330.3 3 314 9.7
2012-04-27 09:12:28 51°13.793 2°52.549 329.3 3 312 9.6
2012-04-27 09:12:33 51°13.796 2°52.544 328.3 2.9 313 9.8
2012-04-27 09:12:37 51°13.798 2°52.541 327.6 2.9 313 9.8
2012-04-27 09:12:43 51°13.801 2°52.535 326.7 2.8 313 9.7
2012-04-27 09:12:48 51°13.804 2°52.53 326.2 2.9 308 9.8
2012-04-27 09:12:53 51°13.807 2°52.525 325.6 2.9 311 9.9
2012-04-27 09:12:58 51°13.809 2°52.52 325 2.9 309 9.9
2012-04-27 09:13:03 51°13.812 2°52.515 324.4 2.8 308 9.8
2012-04-27 09:13:08 51°13.814 2°52.511 323.8 2.8 310 9.8
2012-04-27 09:13:13 51°13.816 2°52.506 323.4 2.8 308 9.9
2012-04-27 09:13:18 51°13.819 2°52.501 323.1 2.8 308 9.9
2012-04-27 09:13:23 51°13.821 2°52.496 322.9 2.8 306 9.9
2012-04-27 09:13:28 51°13.823 2°52.491 322.4 2.7 307 9.9
2012-04-27 09:13:33 51°13.825 2°52.486 322.1 2.7 306 9.8
2012-04-27 09:13:37 51°13.827 2°52.482 321.7 2.7 306 9.9
2012-04-27 09:13:43 51°13.83 2°52.476 321.5 2.7 306 9.9
2012-04-27 09:13:48 51°13.832 2°52.471 320.9 2.7 306 9.9
2012-04-27 09:13:53 51°13.835 2°52.466 320.5 2.8 306 10
2012-04-27 09:13:57 51°13.836 2°52.462 320 2.8 303 10
2012-04-27 09:14:03 51°13.839 2°52.456 319.5 2.8 305 10
2012-04-27 09:14:08 51°13.841 2°52.451 319.2 2.8 305 10.1
2012-04-27 09:14:13 51°13.843 2°52.446 318.7 2.7 305 10.1
2012-04-27 09:14:18 51°13.845 2°52.441 318.5 2.7 305 10.3
2012-04-27 09:14:22 51°13.847 2°52.437 318.1 2.6 304 10.1
2012-04-27 09:14:28 51°13.849 2°52.432 317.9 2.5 302 9.9
2012-04-27 09:14:33 51°13.851 2°52.427 317.4 2.4 302 10
2012-04-27 09:14:37 51°13.852 2°52.424 316.9 2.3 301 10.1
2012-04-27 09:14:43 51°13.854 2°52.419 316.3 2.2 301 10
2012-04-27 09:14:48 51°13.856 2°52.415 316 2 299 9.9
2012-04-27 09:14:53 51°13.857 2°52.411 316.2 1.9 299 10
2012-04-27 09:14:58 51°13.858 2°52.408 317 1.8 300 9.9
2012-04-27 09:15:03 51°13.859 2°52.404 317.7 1.7 299 10
2012-04-27 09:15:08 51°13.86 2°52.401 318.7 1.6 299 10
2012-04-27 09:15:13 51°13.862 2°52.398 319.9 1.5 300 10
2012-04-27 09:15:18 51°13.863 2°52.396 320.9 1.4 299 10
2012-04-27 09:15:23 51°13.863 2°52.393 321.8 1.3 301 9.9
2012-04-27 09:15:28 51°13.864 2°52.391 322.5 1.3 298 10
2012-04-27 09:15:33 51°13.865 2°52.388 323.1 1.2 299 10.1
2012-04-27 09:15:37 51°13.866 2°52.387 323.3 1.1 295 10.2
2012-04-27 09:15:43 51°13.866 2°52.384 323.2 1.1 294 10.1
2012-04-27 09:15:48 51°13.867 2°52.382 322.9 0.9 292 10.1
2012-04-27 09:15:53 51°13.867 2°52.38 322.3 0.9 293 10.2
2012-04-27 09:15:57 51°13.868 2°52.379 321.5 0.9 292 10
2012-04-27 09:16:03 51°13.868 2°52.377 320.5 0.8 291 10
2012-04-27 09:16:08 51°13.869 2°52.375 319.4 0.8 287 10.1
2012-04-27 09:16:13 51°13.869 2°52.374 318.2 0.7 288 10.1
2012-04-27 09:16:17 51°13.869 2°52.373 317 0.6 281 10
2012-04-27 09:16:23 51°13.869 2°52.371 315.9 0.5 280 10.1
2012-04-27 09:16:28 51°13.869 2°52.37 315 0.5 271 10.2
2012-04-27 09:16:33 51°13.869 2°52.369 314.4 0.4 272 10.1
2012-04-27 09:16:37 51°13.869 2°52.369 313.3 0.3 256 10.2
2012-04-27 09:16:42 51°13.869 2°52.368 312.9 0.3 256 10.1
2012-04-27 09:16:48 51°13.869 2°52.367 312.9 0.3 243 10
2012-04-27 09:16:53 51°13.869 2°52.367 312.9 0.2 226 10.1
2012-04-27 09:16:58 51°13.868 2°52.367 313.4 0.2 213 10.1
2012-04-27 09:17:03 51°13.868 2°52.366 314.3 0.2 189 10.1
2012-04-27 09:17:08 51°13.867 2°52.366 315.1 0.2 189 10.2
2012-04-27 09:17:13 51°13.867 2°52.366 316.5 0.3 192 10.2
2012-04-27 09:17:18 51°13.867 2°52.366 317.8 0.3 186 10.3
2012-04-27 09:17:23 51°13.866 2°52.366 319.1 0.4 184 10.2
2012-04-27 09:17:28 51°13.866 2°52.366 320.9 0.4 174 10
2012-04-27 09:17:33 51°13.865 2°52.366 322.1 0.4 175 10.2
2012-04-27 09:17:37 51°13.865 2°52.366 324.2 0.5 176 10.1
2012-04-27 09:17:43 51°13.864 2°52.366 325.9 0.5 179 10.2
2012-04-27 09:17:48 51°13.863 2°52.366 327.9 0.5 172 10.1
2012-04-27 09:17:53 51°13.863 2°52.366 329.6 0.5 178 10.1
2012-04-27 09:17:57 51°13.862 2°52.366 331.6 0.6 177 10
2012-04-27 09:18:03 51°13.861 2°52.366 333.5 0.6 180 10
2012-04-27 09:18:08 51°13.86 2°52.366 335.3 0.6 173 10.2
2012-04-27 09:18:13 51°13.859 2°52.366 336.4 0.7 181 10
2012-04-27 09:18:17 51°13.858 2°52.366 338.6 0.7 178 10.1
2012-04-27 09:18:23 51°13.857 2°52.367 340.5 0.7 183 10
2012-04-27 09:18:28 51°13.856 2°52.366 342.2 0.8 183 9.9
2012-04-27 09:18:33 51°13.855 2°52.366 343.6 0.9 184 10
2012-04-27 09:18:37 51°13.854 2°52.366 345.9 0.8 185 10
2012-04-27 09:18:43 51°13.853 2°52.366 347.3 0.9 184 10
2012-04-27 09:18:48 51°13.851 2°52.366 348.6 0.9 183 10.1
2012-04-27 09:18:53 51°13.85 2°52.366 349.6 0.9 185 10.2
2012-04-27 09:18:57 51°13.849 2°52.365 350.9 0.9 188 10.1
2012-04-27 09:19:03 51°13.847 2°52.365 351.9 1 188 9.9
2012-04-27 09:19:08 51°13.846 2°52.365 353 1 192 9.9
2012-04-27 09:19:13 51°13.845 2°52.365 354.7 1.1 189 10
2012-04-27 09:19:18 51°13.843 2°52.364 355.9 1.1 192 10
2012-04-27 09:19:23 51°13.842 2°52.364 356.8 1.1 192 10.1
2012-04-27 09:19:28 51°13.84 2°52.363 357.9 1.1 196 10
2012-04-27 09:19:33 51°13.839 2°52.362 358.8 1.1 195 10.1
2012-04-27 09:19:38 51°13.838 2°52.362 359.6 1.1 196 9.8
2012-04-27 09:19:43 51°13.836 2°52.361 0.4 1.1 194 9.9
2012-04-27 09:19:48 51°13.834 2°52.36 1.5 1.1 196 10.1
2012-04-27 09:19:53 51°13.833 2°52.36 2.5 1.1 196 10.1
2012-04-27 09:19:58 51°13.831 2°52.359 3.6 1.2 198 10.1
2012-04-27 09:20:03 51°13.83 2°52.358 4.5 1.2 196 10.2
2012-04-27 09:20:08 51°13.828 2°52.357 5.6 1.2 199 10.2
2012-04-27 09:20:13 51°13.827 2°52.356 6.6 1.2 199 10
2012-04-27 09:20:17 51°13.825 2°52.355 7.8 1.3 202 10
2012-04-27 09:20:23 51°13.823 2°52.354 8.8 1.2 201 10.1
2012-04-27 09:20:28 51°13.822 2°52.353 9.9 1.3 204 10.1
2012-04-27 09:20:33 51°13.82 2°52.352 10.9 1.3 205 10.1
2012-04-27 09:20:37 51°13.819 2°52.351 11.7 1.4 206 9.8
2012-04-27 09:20:43 51°13.817 2°52.349 13.2 1.3 206 10
2012-04-27 09:20:48 51°13.815 2°52.348 14.3 1.4 202 10.2
2012-04-27 09:20:53 51°13.813 2°52.346 15.2 1.4 211 10.1
2012-04-27 09:20:58 51°13.812 2°52.345 16.2 1.4 205 10.2
2012-04-27 09:21:02 51°13.81 2°52.344 17.2 1.5 213 10.2
2012-04-27 09:21:08 51°13.808 2°52.342 18.4 1.5 213 9.9
2012-04-27 09:21:13 51°13.806 2°52.34 19.7 1.5 213 10
2012-04-27 09:21:18 51°13.805 2°52.338 21.5 1.5 214 10.1
2012-04-27 09:21:23 51°13.803 2°52.336 22.3 1.5 219 9.7
2012-04-27 09:21:28 51°13.801 2°52.335 23.3 1.5 208 10
2012-04-27 09:21:33 51°13.8 2°52.332 24.4 1.5 220 10.2
2012-04-27 09:21:37 51°13.798 2°52.331 25.8 1.5 213 10.2
2012-04-27 09:21:43 51°13.796 2°52.329 26.8 1.5 221 10.2
2012-04-27 09:21:48 51°13.795 2°52.327 27.9 1.5 214 10.2
2012-04-27 09:21:53 51°13.793 2°52.324 29.1 1.5 223 10.2
2012-04-27 09:21:57 51°13.792 2°52.323 30.6 1.5 220 10.1
2012-04-27 09:22:03 51°13.79 2°52.32 31.9 1.4 226 10
2012-04-27 09:22:08 51°13.789 2°52.318 32.9 1.4 226 10
2012-04-27 09:22:13 51°13.788 2°52.315 34 1.4 229 9.9
2012-04-27 09:22:17 51°13.786 2°52.314 35.7 1.4 226 9.9
2012-04-27 09:22:23 51°13.785 2°52.311 36.5 1.3 230 9.9
2012-04-27 09:22:28 51°13.784 2°52.309 37.8 1.3 227 10
2012-04-27 09:22:33 51°13.783 2°52.306 39.3 1.3 236 9.9
2012-04-27 09:22:37 51°13.782 2°52.305 40.9 1.2 232 10
2012-04-27 09:22:43 51°13.781 2°52.302 41.9 1.2 235 10.1
2012-04-27 09:22:48 51°13.78 2°52.3 43.2 1.2 237 10
2012-04-27 09:22:53 51°13.779 2°52.298 44.4 1.1 237 10.1
2012-04-27 09:22:58 51°13.779 2°52.296 45.5 1 244 10
2012-04-27 09:23:02 51°13.778 2°52.294 46.2 1 238 9.9
2012-04-27 09:23:08 51°13.777 2°52.292 47.3 1 243 10
2012-04-27 09:23:13 51°13.777 2°52.29 48 1 243 10.1
2012-04-27 09:23:17 51°13.776 2°52.289 48.7 0.9 248 10
2012-04-27 09:23:23 51°13.776 2°52.287 49.4 0.8 250 10
2012-04-27 09:23:28 51°13.776 2°52.285 50.2 0.7 254 10.1
2012-04-27 09:23:33 51°13.776 2°52.284 51.7 0.5 252 10
2012-04-27 09:23:38 51°13.776 2°52.283 54 0.3 266 10.1
2012-04-27 09:23:43 51°13.776 2°52.283 56.4 0.2 292 10
2012-04-27 09:23:48 51°13.776 2°52.283 59.4 0.1 18 10.1
2012-04-27 09:23:53 51°13.776 2°52.284 62.6 0.2 53 10.1
2012-04-27 09:23:58 51°13.776 2°52.285 67.6 0.4 80 10
2012-04-27 09:24:03 51°13.776 2°52.286 70.7 0.6 76 9.9
2012-04-27 09:24:08 51°13.776 2°52.288 74.8 0.8 92 10
2012-04-27 09:24:13 51°13.776 2°52.29 79.3 1 89 10
2012-04-27 09:24:17 51°13.776 2°52.292 85.2 1.2 106 10.1
2012-04-27 09:24:23 51°13.776 2°52.295 89.4 1.2 100 10
2012-04-27 09:24:28 51°13.775 2°52.298 94.3 1.3 115 10.2
2012-04-27 09:24:33 51°13.774 2°52.3 98.8 1.2 108 9.9
2012-04-27 09:24:38 51°13.773 2°52.303 101.7 1.3 118 10
2012-04-27 09:24:43 51°13.773 2°52.305 103.5 1.3 116 10
2012-04-27 09:24:48 51°13.772 2°52.308 105.3 1.3 116 10
2012-04-27 09:24:53 51°13.771 2°52.311 106.2 1.4 119 10.1
2012-04-27 09:24:58 51°13.77 2°52.314 107.4 1.5 118 10
2012-04-27 09:25:03 51°13.769 2°52.316 108.4 1.6 122 10
2012-04-27 09:25:08 51°13.768 2°52.32 109.3 1.6 117 9.9
2012-04-27 09:25:13 51°13.767 2°52.323 110 1.7 122 9.9
2012-04-27 09:25:17 51°13.766 2°52.325 110.8 1.7 118 9.9
2012-04-27 09:25:23 51°13.764 2°52.329 111.4 1.8 123 9.9
2012-04-27 09:25:28 51°13.763 2°52.333 112.1 1.8 119 10
2012-04-27 09:25:33 51°13.762 2°52.337 112.6 1.9 124 9.9
2012-04-27 09:25:37 51°13.761 2°52.339 113.5 1.9 120 9.8
2012-04-27 09:25:43 51°13.759 2°52.344 114 2 125 9.9
2012-04-27 09:25:48 51°13.757 2°52.347 114.7 2 123 9.8
2012-04-27 09:25:53 51°13.756 2°52.351 115.5 2 127 9.9
2012-04-27 09:25:58 51°13.754 2°52.354 115.8 1.8 125 9.8
2012-04-27 09:26:03 51°13.753 2°52.357 116.6 1.8 127 9.9
2012-04-27 09:26:08 51°13.751 2°52.36 116.9 1.7 127 9.8
2012-04-27 09:26:13 51°13.75 2°52.363 117.1 1.7 127 9.8
2012-04-27 09:26:17 51°13.749 2°52.366 117.7 1.6 129 9.8
2012-04-27 09:26:23 51°13.747 2°52.369 118.3 1.6 129 9.8
2012-04-27 09:26:28 51°13.746 2°52.372 119.1 1.6 132 9.8
2012-04-27 09:26:33 51°13.744 2°52.374 119.8 1.5 131 9.8
2012-04-27 09:26:38 51°13.743 2°52.376 120.7 1.5 136 9.9
2012-04-27 09:26:43 51°13.742 2°52.379 121.6 1.4 134 9.7
2012-04-27 09:26:48 51°13.74 2°52.381 122.7 1.4 139 9.8
2012-04-27 09:26:53 51°13.739 2°52.383 123.4 1.3 137 9.8
2012-04-27 09:26:57 51°13.738 2°52.384 124.3 1.3 134 9.7
2012-04-27 09:27:03 51°13.736 2°52.386 125.4 1.3 148 9.8
2012-04-27 09:27:08 51°13.735 2°52.388 126.4 1.2 142 9.7
2012-04-27 09:27:13 51°13.734 2°52.389 127.2 1.3 150 9.7
2012-04-27 09:27:17 51°13.732 2°52.39 128.1 1.2 149 9.7
2012-04-27 09:27:23 51°13.731 2°52.392 128.9 1.2 153 9.7
2012-04-27 09:27:28 51°13.729 2°52.393 130 1.2 152 9.8
2012-04-27 09:27:33 51°13.728 2°52.394 130.7 1.2 157 9.8
2012-04-27 09:27:37 51°13.727 2°52.395 131.6 1.1 155 9.7
2012-04-27 09:27:43 51°13.725 2°52.396 132.5 1.1 161 9.8
2012-04-27 09:27:48 51°13.724 2°52.397 133.1 1 161 9.7
2012-04-27 09:27:53 51°13.722 2°52.397 133.8 1 163 9.7
2012-04-27 09:27:57 51°13.722 2°52.398 134.1 0.9 166 9.6
2012-04-27 09:28:03 51°13.72 2°52.398 134.4 0.8 163 9.7
2012-04-27 09:28:08 51°13.719 2°52.399 134.4 0.8 169 9.7
2012-04-27 09:28:13 51°13.718 2°52.399 134.3 0.7 168 9.7
2012-04-27 09:28:17 51°13.717 2°52.399 134.2 0.7 171 9.7
2012-04-27 09:28:23 51°13.716 2°52.4 134 0.7 172 9.6
2012-04-27 09:28:28 51°13.715 2°52.4 134 0.7 176 9.6
2012-04-27 09:28:33 51°13.714 2°52.4 133.8 0.7 175 9.7
2012-04-27 09:28:38 51°13.713 2°52.399 133.8 1 195 9.7
2012-04-27 09:28:43 51°13.712 2°52.4 133.8 0.5 166 9.6
2012-04-27 09:28:48 51°13.711 2°52.399 133.9 0.8 193 9.7
2012-04-27 09:28:53 51°13.71 2°52.399 133.8 0.5 179 9.6
2012-04-27 09:28:58 51°13.709 2°52.399 133.8 0.7 192 9.6
2012-04-27 09:29:03 51°13.708 2°52.399 133.6 0.5 186 9.7
2012-04-27 09:29:08 51°13.707 2°52.398 133.7 0.7 194 9.6
2012-04-27 09:29:13 51°13.707 2°52.398 134 0.6 192 9.6
2012-04-27 09:29:17 51°13.706 2°52.398 134.2 0.7 188 9.6
2012-04-27 09:29:23 51°13.704 2°52.398 134.6 0.9 172 9.6
2012-04-27 09:29:28 51°13.703 2°52.399 136 1.2 167 9.7
2012-04-27 09:29:33 51°13.701 2°52.4 138.2 1.4 166 9.6
2012-04-27 09:29:37 51°13.699 2°52.4 141.6 1.6 166 9.7
2012-04-27 09:29:43 51°13.696 2°52.401 145.2 1.9 167 9.7
2012-04-27 09:29:48 51°13.693 2°52.402 149.2 2 168 9.6
2012-04-27 09:29:53 51°13.69 2°52.403 153.4 2.3 170 9.5
2012-04-27 09:29:58 51°13.687 2°52.404 157.3 2.4 174 9.7
2012-04-27 09:30:02 51°13.684 2°52.404 161.7 2.6 177 9.7
2012-04-27 09:30:08 51°13.68 2°52.404 165.9 2.7 181 9.7
2012-04-27 09:30:13 51°13.676 2°52.403 170 2.8 185 9.5
2012-04-27 09:30:17 51°13.673 2°52.403 174.5 2.9 187 9.6
2012-04-27 09:30:23 51°13.668 2°52.401 178.8 3.1 191 9.6
2012-04-27 09:30:28 51°13.663 2°52.4 183 3.2 195 9.5
2012-04-27 09:30:33 51°13.659 2°52.398 187.2 3.5 195 9.7
2012-04-27 09:30:38 51°13.654 2°52.395 190.7 3.8 200 9.4
2012-04-27 09:30:43 51°13.649 2°52.392 193.7 4.1 200 9.5
2012-04-27 09:30:48 51°13.643 2°52.388 196.3 4.4 204 9.4
2012-04-27 09:30:53 51°13.637 2°52.383 199 4.7 205 9.3
2012-04-27 09:30:58 51°13.631 2°52.378 201.7 4.9 208 9.4
2012-04-27 09:31:03 51°13.625 2°52.373 204 5.1 209 9.4
2012-04-27 09:31:08 51°13.619 2°52.367 205.6 5.3 209 9.5
2012-04-27 09:31:13 51°13.612 2°52.361 206.4 5.4 210 9.7
2012-04-27 09:31:17 51°13.607 2°52.356 207.4 5.4 211 9.5
2012-04-27 09:31:23 51°13.599 2°52.349 207.6 5.3 210 9.4
2012-04-27 09:31:28 51°13.593 2°52.343 207.7 5.3 212 9.3
2012-04-27 09:31:33 51°13.587 2°52.337 208.4 5.3 212 9.6
2012-04-27 09:31:37 51°13.582 2°52.331 209.1 5.3 213 9.7
2012-04-27 09:31:43 51°13.575 2°52.324 210.1 5.3 213 9.4
2012-04-27 09:31:48 51°13.569 2°52.317 210.6 5.2 215 9.3
2012-04-27 09:31:53 51°13.563 2°52.311 211.5 5.1 213 9.4
2012-04-27 09:31:57 51°13.558 2°52.306 212 5 217 9.4
2012-04-27 09:32:03 51°13.552 2°52.299 213 4.9 214 9.5
2012-04-27 09:32:08 51°13.547 2°52.292 213.5 4.7 218 9.4
2012-04-27 09:32:13 51°13.542 2°52.286 214 4.6 216 9.6
2012-04-27 09:32:17 51°13.538 2°52.281 214.6 4.4 219 9.4
2012-04-27 09:32:22 51°13.533 2°52.275 214.7 4.3 218 9.5
2012-04-27 09:32:28 51°13.528 2°52.269 215.4 4.2 220 9.5
2012-04-27 09:32:33 51°13.523 2°52.263 215.9 4.1 219 9.6
2012-04-27 09:32:37 51°13.52 2°52.258 216.7 4 220 9.5
2012-04-27 09:32:43 51°13.515 2°52.252 217.3 3.8 221 9.4
2012-04-27 09:32:48 51°13.511 2°52.246 217.8 3.7 221 9.5
2012-04-27 09:32:53 51°13.507 2°52.241 218.4 3.6 221 9.4
2012-04-27 09:32:58 51°13.504 2°52.236 219 3.5 222 9.4
2012-04-27 09:33:03 51°13.5 2°52.231 219.4 3.4 222 9.5
2012-04-27 09:33:08 51°13.497 2°52.226 219.7 3.3 222 9.4
2012-04-27 09:33:13 51°13.494 2°52.221 220 3.2 224 9.6
2012-04-27 09:33:18 51°13.491 2°52.216 220.8 3.1 223 9.6
2012-04-27 09:33:23 51°13.488 2°52.212 221.2 2.9 223 9.3
2012-04-27 09:33:28 51°13.485 2°52.208 221 2.8 225 9.3
2012-04-27 09:33:33 51°13.482 2°52.203 221 2.8 223 9.4
2012-04-27 09:33:37 51°13.48 2°52.2 221.1 2.7 226 9.5
2012-04-27 09:33:43 51°13.477 2°52.195 221.7 2.6 224 9.4
2012-04-27 09:33:48 51°13.475 2°52.191 222.1 2.6 229 9.4
2012-04-27 09:33:53 51°13.472 2°52.187 222.8 2.4 224 9.3
2012-04-27 09:33:57 51°13.47 2°52.184 223 2.4 230 9.6
2012-04-27 09:34:03 51°13.468 2°52.179 223.8 2.3 226 9.5
2012-04-27 09:34:08 51°13.466 2°52.175 224.1 2.3 232 9.5
2012-04-27 09:34:13 51°13.464 2°52.172 224.3 2.2 229 9.4
2012-04-27 09:34:18 51°13.462 2°52.168 225.1 2.2 233 9.4
2012-04-27 09:34:22 51°13.46 2°52.164 225.7 2.1 232 9.5
2012-04-27 09:34:28 51°13.458 2°52.16 226.7 2.1 239 9.4